sensor_id;sensor_type;location;lat;lon;timestamp;P1;durP1;ratioP1;P2;durP2;ratioP2
38972;SDS011;25333;50.762;4.470;2023-06-26T00:00:48;4.07;;;2.50;;
38972;SDS011;25333;50.762;4.470;2023-06-26T00:03:14;4.40;;;2.70;;
38972;SDS011;25333;50.762;4.470;2023-06-26T00:05:40;3.45;;;2.33;;
38972;SDS011;25333;50.762;4.470;2023-06-26T00:08:07;4.28;;;2.40;;
38972;SDS011;25333;50.762;4.470;2023-06-26T00:10:32;4.55;;;2.42;;
38972;SDS011;25333;50.762;4.470;2023-06-26T00:12:58;2.90;;;1.80;;
38972;SDS011;25333;50.762;4.470;2023-06-26T00:15:24;4.70;;;1.75;;
38972;SDS011;25333;50.762;4.470;2023-06-26T00:17:50;3.33;;;1.87;;
38972;SDS011;25333;50.762;4.470;2023-06-26T00:20:15;4.27;;;1.97;;
38972;SDS011;25333;50.762;4.470;2023-06-26T00:22:42;2.75;;;1.85;;
38972;SDS011;25333;50.762;4.470;2023-06-26T00:25:08;4.50;;;1.92;;
38972;SDS011;25333;50.762;4.470;2023-06-26T00:27:34;5.30;;;1.85;;
38972;SDS011;25333;50.762;4.470;2023-06-26T00:29:59;4.70;;;2.58;;
38972;SDS011;25333;50.762;4.470;2023-06-26T00:32:25;3.70;;;2.37;;
38972;SDS011;25333;50.762;4.470;2023-06-26T00:34:50;4.60;;;1.90;;
38972;SDS011;25333;50.762;4.470;2023-06-26T00:37:17;4.03;;;2.00;;
38972;SDS011;25333;50.762;4.470;2023-06-26T00:39:42;4.10;;;2.00;;
38972;SDS011;25333;50.762;4.470;2023-06-26T00:42:08;3.80;;;2.03;;
38972;SDS011;25333;50.762;4.470;2023-06-26T00:44:34;3.93;;;2.37;;
38972;SDS011;25333;50.762;4.470;2023-06-26T00:46:59;5.07;;;2.27;;
38972;SDS011;25333;50.762;4.470;2023-06-26T00:49:26;2.75;;;1.30;;
38972;SDS011;25333;50.762;4.470;2023-06-26T00:51:52;3.78;;;2.00;;
38972;SDS011;25333;50.762;4.470;2023-06-26T00:54:18;3.70;;;2.03;;
38972;SDS011;25333;50.762;4.470;2023-06-26T00:56:45;4.27;;;2.03;;
38972;SDS011;25333;50.762;4.470;2023-06-26T00:59:12;4.53;;;1.92;;
38972;SDS011;25333;50.762;4.470;2023-06-26T01:01:38;3.40;;;1.43;;
38972;SDS011;25333;50.762;4.470;2023-06-26T01:04:03;5.93;;;2.80;;
38972;SDS011;25333;50.762;4.470;2023-06-26T01:06:30;5.20;;;2.30;;
38972;SDS011;25333;50.762;4.470;2023-06-26T01:09:00;2.38;;;1.27;;
38972;SDS011;25333;50.762;4.470;2023-06-26T01:11:27;4.28;;;1.73;;
38972;SDS011;25333;50.762;4.470;2023-06-26T01:13:52;3.22;;;1.75;;
38972;SDS011;25333;50.762;4.470;2023-06-26T01:16:20;3.80;;;2.05;;
38972;SDS011;25333;50.762;4.470;2023-06-26T01:18:46;3.70;;;1.67;;
38972;SDS011;25333;50.762;4.470;2023-06-26T01:21:13;3.50;;;1.77;;
38972;SDS011;25333;50.762;4.470;2023-06-26T01:23:48;6.90;;;2.30;;
38972;SDS011;25333;50.762;4.470;2023-06-26T01:28:47;5.00;;;1.90;;
38972;SDS011;25333;50.762;4.470;2023-06-26T01:31:15;3.38;;;1.58;;
38972;SDS011;25333;50.762;4.470;2023-06-26T01:33:42;2.63;;;1.52;;
38972;SDS011;25333;50.762;4.470;2023-06-26T01:36:08;6.28;;;2.00;;
38972;SDS011;25333;50.762;4.470;2023-06-26T01:38:35;3.42;;;1.52;;
38972;SDS011;25333;50.762;4.470;2023-06-26T01:41:01;3.75;;;1.80;;
38972;SDS011;25333;50.762;4.470;2023-06-26T01:46:38;3.20;;;1.87;;
38972;SDS011;25333;50.762;4.470;2023-06-26T01:49:44;6.55;;;1.88;;
38972;SDS011;25333;50.762;4.470;2023-06-26T01:52:49;2.72;;;1.52;;
38972;SDS011;25333;50.762;4.470;2023-06-26T01:55:43;3.50;;;1.80;;
38972;SDS011;25333;50.762;4.470;2023-06-26T01:58:13;4.07;;;2.30;;
38972;SDS011;25333;50.762;4.470;2023-06-26T02:00:41;4.53;;;1.50;;
38972;SDS011;25333;50.762;4.470;2023-06-26T02:03:08;4.78;;;1.92;;
38972;SDS011;25333;50.762;4.470;2023-06-26T02:05:34;3.75;;;2.15;;
38972;SDS011;25333;50.762;4.470;2023-06-26T02:07:59;4.03;;;2.42;;
38972;SDS011;25333;50.762;4.470;2023-06-26T02:10:28;5.65;;;1.95;;
38972;SDS011;25333;50.762;4.470;2023-06-26T02:12:54;3.10;;;1.63;;
38972;SDS011;25333;50.762;4.470;2023-06-26T02:15:19;4.68;;;2.22;;
38972;SDS011;25333;50.762;4.470;2023-06-26T02:17:45;4.00;;;2.30;;
38972;SDS011;25333;50.762;4.470;2023-06-26T02:20:16;3.35;;;1.67;;
38972;SDS011;25333;50.762;4.470;2023-06-26T02:22:42;4.35;;;1.98;;
38972;SDS011;25333;50.762;4.470;2023-06-26T02:25:08;3.28;;;2.00;;
38972;SDS011;25333;50.762;4.470;2023-06-26T02:27:35;3.45;;;1.90;;
38972;SDS011;25333;50.762;4.470;2023-06-26T02:30:01;4.93;;;1.50;;
38972;SDS011;25333;50.762;4.470;2023-06-26T02:32:27;4.18;;;2.25;;
38972;SDS011;25333;50.762;4.470;2023-06-26T02:34:52;4.60;;;2.70;;
38972;SDS011;25333;50.762;4.470;2023-06-26T02:37:19;4.88;;;2.67;;
38972;SDS011;25333;50.762;4.470;2023-06-26T02:39:44;4.95;;;2.05;;
38972;SDS011;25333;50.762;4.470;2023-06-26T02:42:10;5.07;;;2.47;;
38972;SDS011;25333;50.762;4.470;2023-06-26T02:44:36;6.63;;;2.22;;
38972;SDS011;25333;50.762;4.470;2023-06-26T02:47:01;6.63;;;2.47;;
38972;SDS011;25333;50.762;4.470;2023-06-26T02:49:27;5.63;;;2.20;;
38972;SDS011;25333;50.762;4.470;2023-06-26T02:51:53;4.03;;;1.90;;
38972;SDS011;25333;50.762;4.470;2023-06-26T02:54:18;5.63;;;2.17;;
38972;SDS011;25333;50.762;4.470;2023-06-26T02:56:44;6.80;;;2.37;;
38972;SDS011;25333;50.762;4.470;2023-06-26T02:59:09;5.97;;;2.77;;
38972;SDS011;25333;50.762;4.470;2023-06-26T03:01:35;6.85;;;2.50;;
38972;SDS011;25333;50.762;4.470;2023-06-26T03:04:01;6.28;;;2.80;;
38972;SDS011;25333;50.762;4.470;2023-06-26T03:06:27;6.20;;;2.38;;
38972;SDS011;25333;50.762;4.470;2023-06-26T03:08:53;9.47;;;2.33;;
38972;SDS011;25333;50.762;4.470;2023-06-26T03:11:19;6.43;;;3.03;;
38972;SDS011;25333;50.762;4.470;2023-06-26T03:13:44;6.50;;;2.40;;
38972;SDS011;25333;50.762;4.470;2023-06-26T03:16:10;5.93;;;3.23;;
38972;SDS011;25333;50.762;4.470;2023-06-26T03:18:36;6.03;;;2.83;;
38972;SDS011;25333;50.762;4.470;2023-06-26T03:21:01;4.40;;;2.50;;
38972;SDS011;25333;50.762;4.470;2023-06-26T03:23:27;3.92;;;2.03;;
38972;SDS011;25333;50.762;4.470;2023-06-26T03:25:52;6.43;;;2.40;;
38972;SDS011;25333;50.762;4.470;2023-06-26T03:28:18;6.65;;;2.30;;
38972;SDS011;25333;50.762;4.470;2023-06-26T03:30:44;4.68;;;2.28;;
38972;SDS011;25333;50.762;4.470;2023-06-26T03:33:09;9.03;;;3.00;;
38972;SDS011;25333;50.762;4.470;2023-06-26T03:35:35;6.27;;;2.00;;
38972;SDS011;25333;50.762;4.470;2023-06-26T03:38:01;6.57;;;2.35;;
38972;SDS011;25333;50.762;4.470;2023-06-26T03:40:28;6.45;;;2.53;;
38972;SDS011;25333;50.762;4.470;2023-06-26T03:42:53;4.97;;;2.20;;
38972;SDS011;25333;50.762;4.470;2023-06-26T03:45:19;7.03;;;2.37;;
38972;SDS011;25333;50.762;4.470;2023-06-26T03:47:45;5.30;;;2.53;;
38972;SDS011;25333;50.762;4.470;2023-06-26T03:50:13;7.03;;;2.97;;
38972;SDS011;25333;50.762;4.470;2023-06-26T03:52:40;8.50;;;3.08;;
38972;SDS011;25333;50.762;4.470;2023-06-26T03:55:05;8.70;;;2.43;;
38972;SDS011;25333;50.762;4.470;2023-06-26T03:57:31;8.50;;;3.30;;
38972;SDS011;25333;50.762;4.470;2023-06-26T03:59:57;5.15;;;2.40;;
38972;SDS011;25333;50.762;4.470;2023-06-26T04:02:22;9.95;;;2.88;;
38972;SDS011;25333;50.762;4.470;2023-06-26T04:04:48;6.75;;;2.67;;
38972;SDS011;25333;50.762;4.470;2023-06-26T04:07:13;6.00;;;3.17;;
38972;SDS011;25333;50.762;4.470;2023-06-26T04:09:39;7.67;;;2.83;;
38972;SDS011;25333;50.762;4.470;2023-06-26T04:12:05;7.50;;;3.03;;
38972;SDS011;25333;50.762;4.470;2023-06-26T04:14:31;7.40;;;2.70;;
38972;SDS011;25333;50.762;4.470;2023-06-26T04:16:57;8.07;;;2.97;;
38972;SDS011;25333;50.762;4.470;2023-06-26T04:19:23;8.80;;;3.17;;
38972;SDS011;25333;50.762;4.470;2023-06-26T04:21:49;8.10;;;2.70;;
38972;SDS011;25333;50.762;4.470;2023-06-26T04:24:14;8.90;;;2.67;;
38972;SDS011;25333;50.762;4.470;2023-06-26T04:26:40;6.37;;;2.67;;
38972;SDS011;25333;50.762;4.470;2023-06-26T04:29:10;9.60;;;2.53;;
38972;SDS011;25333;50.762;4.470;2023-06-26T04:31:36;10.50;;;3.13;;
38972;SDS011;25333;50.762;4.470;2023-06-26T04:34:01;6.85;;;3.10;;
38972;SDS011;25333;50.762;4.470;2023-06-26T04:36:27;8.70;;;2.83;;
38972;SDS011;25333;50.762;4.470;2023-06-26T04:38:53;7.97;;;2.55;;
38972;SDS011;25333;50.762;4.470;2023-06-26T04:41:19;6.88;;;2.40;;
38972;SDS011;25333;50.762;4.470;2023-06-26T04:43:45;5.30;;;2.30;;
38972;SDS011;25333;50.762;4.470;2023-06-26T04:46:10;11.20;;;2.97;;
38972;SDS011;25333;50.762;4.470;2023-06-26T04:48:36;12.20;;;2.63;;
38972;SDS011;25333;50.762;4.470;2023-06-26T04:51:02;5.97;;;2.37;;
38972;SDS011;25333;50.762;4.470;2023-06-26T04:53:27;8.55;;;2.92;;
38972;SDS011;25333;50.762;4.470;2023-06-26T04:55:55;5.53;;;1.98;;
38972;SDS011;25333;50.762;4.470;2023-06-26T04:58:21;6.10;;;2.73;;
38972;SDS011;25333;50.762;4.470;2023-06-26T05:00:47;8.43;;;2.80;;
38972;SDS011;25333;50.762;4.470;2023-06-26T05:03:13;8.80;;;2.45;;
38972;SDS011;25333;50.762;4.470;2023-06-26T05:05:41;9.13;;;3.20;;
38972;SDS011;25333;50.762;4.470;2023-06-26T05:08:17;9.18;;;2.20;;
38972;SDS011;25333;50.762;4.470;2023-06-26T05:10:48;6.63;;;1.95;;
38972;SDS011;25333;50.762;4.470;2023-06-26T05:13:14;8.82;;;2.47;;
38972;SDS011;25333;50.762;4.470;2023-06-26T05:15:42;7.80;;;1.98;;
38972;SDS011;25333;50.762;4.470;2023-06-26T05:18:08;7.10;;;2.38;;
38972;SDS011;25333;50.762;4.470;2023-06-26T05:20:35;10.73;;;2.70;;
38972;SDS011;25333;50.762;4.470;2023-06-26T05:23:04;6.50;;;2.60;;
38972;SDS011;25333;50.762;4.470;2023-06-26T05:25:30;5.85;;;2.22;;
38972;SDS011;25333;50.762;4.470;2023-06-26T05:27:57;7.18;;;2.35;;
38972;SDS011;25333;50.762;4.470;2023-06-26T05:30:23;6.53;;;1.92;;
38972;SDS011;25333;50.762;4.470;2023-06-26T05:32:51;6.32;;;1.50;;
38972;SDS011;25333;50.762;4.470;2023-06-26T05:35:17;11.88;;;2.13;;
38972;SDS011;25333;50.762;4.470;2023-06-26T05:37:45;8.55;;;2.13;;
38972;SDS011;25333;50.762;4.470;2023-06-26T05:40:13;7.75;;;1.83;;
38972;SDS011;25333;50.762;4.470;2023-06-26T05:42:39;7.10;;;2.42;;
38972;SDS011;25333;50.762;4.470;2023-06-26T05:45:05;5.60;;;2.15;;
38972;SDS011;25333;50.762;4.470;2023-06-26T05:47:31;7.50;;;2.10;;
38972;SDS011;25333;50.762;4.470;2023-06-26T05:49:57;8.65;;;2.55;;
38972;SDS011;25333;50.762;4.470;2023-06-26T05:52:22;4.70;;;1.90;;
38972;SDS011;25333;50.762;4.470;2023-06-26T05:54:48;11.77;;;2.58;;
38972;SDS011;25333;50.762;4.470;2023-06-26T05:57:14;6.53;;;2.15;;
38972;SDS011;25333;50.762;4.470;2023-06-26T05:59:41;14.65;;;2.28;;
38972;SDS011;25333;50.762;4.470;2023-06-26T06:02:08;9.73;;;2.08;;
38972;SDS011;25333;50.762;4.470;2023-06-26T06:04:34;7.40;;;1.70;;
38972;SDS011;25333;50.762;4.470;2023-06-26T06:07:00;5.93;;;1.77;;
38972;SDS011;25333;50.762;4.470;2023-06-26T06:09:25;6.65;;;1.85;;
38972;SDS011;25333;50.762;4.470;2023-06-26T06:11:51;5.68;;;1.58;;
38972;SDS011;25333;50.762;4.470;2023-06-26T06:14:17;7.97;;;1.25;;
38972;SDS011;25333;50.762;4.470;2023-06-26T06:16:42;5.50;;;1.60;;
38972;SDS011;25333;50.762;4.470;2023-06-26T06:19:08;4.63;;;1.77;;
38972;SDS011;25333;50.762;4.470;2023-06-26T06:21:36;4.38;;;1.23;;
38972;SDS011;25333;50.762;4.470;2023-06-26T06:24:01;4.25;;;1.27;;
38972;SDS011;25333;50.762;4.470;2023-06-26T06:26:28;5.27;;;1.57;;
38972;SDS011;25333;50.762;4.470;2023-06-26T06:28:53;8.10;;;1.77;;
38972;SDS011;25333;50.762;4.470;2023-06-26T06:31:19;4.63;;;1.35;;
38972;SDS011;25333;50.762;4.470;2023-06-26T06:33:45;5.85;;;1.23;;
38972;SDS011;25333;50.762;4.470;2023-06-26T06:36:11;4.83;;;1.23;;
38972;SDS011;25333;50.762;4.470;2023-06-26T06:38:37;5.35;;;1.25;;
38972;SDS011;25333;50.762;4.470;2023-06-26T06:41:03;4.82;;;1.27;;
38972;SDS011;25333;50.762;4.470;2023-06-26T06:43:28;6.28;;;1.20;;
38972;SDS011;25333;50.762;4.470;2023-06-26T06:45:54;4.32;;;0.80;;
38972;SDS011;25333;50.762;4.470;2023-06-26T06:48:20;5.30;;;1.08;;
38972;SDS011;25333;50.762;4.470;2023-06-26T06:50:45;4.47;;;0.90;;
38972;SDS011;25333;50.762;4.470;2023-06-26T06:53:11;5.75;;;1.00;;
38972;SDS011;25333;50.762;4.470;2023-06-26T06:55:36;5.78;;;1.05;;
38972;SDS011;25333;50.762;4.470;2023-06-26T06:58:02;4.03;;;1.20;;
38972;SDS011;25333;50.762;4.470;2023-06-26T07:00:28;4.68;;;0.93;;
38972;SDS011;25333;50.762;4.470;2023-06-26T07:02:53;4.03;;;1.13;;
38972;SDS011;25333;50.762;4.470;2023-06-26T07:05:21;3.78;;;1.05;;
38972;SDS011;25333;50.762;4.470;2023-06-26T07:07:47;4.23;;;1.10;;
38972;SDS011;25333;50.762;4.470;2023-06-26T07:10:13;4.03;;;1.03;;
38972;SDS011;25333;50.762;4.470;2023-06-26T07:12:39;3.53;;;0.70;;
38972;SDS011;25333;50.762;4.470;2023-06-26T07:15:05;3.60;;;0.67;;
38972;SDS011;25333;50.762;4.470;2023-06-26T07:17:32;4.10;;;1.10;;
38972;SDS011;25333;50.762;4.470;2023-06-26T07:19:58;3.97;;;0.80;;
38972;SDS011;25333;50.762;4.470;2023-06-26T07:22:24;6.55;;;0.93;;
38972;SDS011;25333;50.762;4.470;2023-06-26T07:24:50;2.90;;;0.90;;
38972;SDS011;25333;50.762;4.470;2023-06-26T07:27:16;4.28;;;0.95;;
38972;SDS011;25333;50.762;4.470;2023-06-26T07:29:43;6.07;;;1.13;;
38972;SDS011;25333;50.762;4.470;2023-06-26T07:32:09;3.55;;;0.60;;
38972;SDS011;25333;50.762;4.470;2023-06-26T07:34:35;3.08;;;0.75;;
38972;SDS011;25333;50.762;4.470;2023-06-26T07:37:00;5.23;;;1.00;;
38972;SDS011;25333;50.762;4.470;2023-06-26T07:39:26;2.40;;;0.60;;
38972;SDS011;25333;50.762;4.470;2023-06-26T07:41:52;2.03;;;0.73;;
38972;SDS011;25333;50.762;4.470;2023-06-26T07:44:17;4.67;;;0.80;;
38972;SDS011;25333;50.762;4.470;2023-06-26T07:46:43;4.65;;;0.50;;
38972;SDS011;25333;50.762;4.470;2023-06-26T07:49:12;1.58;;;0.60;;
38972;SDS011;25333;50.762;4.470;2023-06-26T07:51:37;3.65;;;0.93;;
38972;SDS011;25333;50.762;4.470;2023-06-26T07:54:03;3.97;;;0.55;;
38972;SDS011;25333;50.762;4.470;2023-06-26T07:56:29;4.00;;;0.85;;
38972;SDS011;25333;50.762;4.470;2023-06-26T07:58:54;2.10;;;0.50;;
38972;SDS011;25333;50.762;4.470;2023-06-26T08:01:22;2.53;;;0.45;;
38972;SDS011;25333;50.762;4.470;2023-06-26T08:03:48;3.60;;;0.80;;
38972;SDS011;25333;50.762;4.470;2023-06-26T08:06:14;4.23;;;0.67;;
38972;SDS011;25333;50.762;4.470;2023-06-26T08:08:40;4.07;;;0.80;;
38972;SDS011;25333;50.762;4.470;2023-06-26T08:11:05;2.80;;;0.73;;
38972;SDS011;25333;50.762;4.470;2023-06-26T08:13:31;2.93;;;0.63;;
38972;SDS011;25333;50.762;4.470;2023-06-26T08:15:57;3.43;;;0.47;;
38972;SDS011;25333;50.762;4.470;2023-06-26T08:18:22;2.60;;;0.80;;
38972;SDS011;25333;50.762;4.470;2023-06-26T08:20:48;3.60;;;1.10;;
38972;SDS011;25333;50.762;4.470;2023-06-26T08:23:15;4.10;;;0.80;;
38972;SDS011;25333;50.762;4.470;2023-06-26T08:25:41;4.63;;;1.43;;
38972;SDS011;25333;50.762;4.470;2023-06-26T08:28:06;2.97;;;0.50;;
38972;SDS011;25333;50.762;4.470;2023-06-26T08:30:32;3.60;;;0.53;;
38972;SDS011;25333;50.762;4.470;2023-06-26T08:33:01;2.33;;;0.70;;
38972;SDS011;25333;50.762;4.470;2023-06-26T08:35:26;4.40;;;0.57;;
38972;SDS011;25333;50.762;4.470;2023-06-26T08:37:52;2.53;;;0.53;;
38972;SDS011;25333;50.762;4.470;2023-06-26T08:40:19;2.55;;;0.85;;
38972;SDS011;25333;50.762;4.470;2023-06-26T08:42:46;2.83;;;0.75;;
38972;SDS011;25333;50.762;4.470;2023-06-26T08:45:12;6.40;;;1.20;;
38972;SDS011;25333;50.762;4.470;2023-06-26T08:47:37;3.33;;;0.63;;
38972;SDS011;25333;50.762;4.470;2023-06-26T08:55:20;4.50;;;0.60;;
38972;SDS011;25333;50.762;4.470;2023-06-26T08:57:49;23.08;;;2.25;;
38972;SDS011;25333;50.762;4.470;2023-06-26T09:00:19;2.17;;;0.63;;
38972;SDS011;25333;50.762;4.470;2023-06-26T09:02:46;2.38;;;0.65;;
38972;SDS011;25333;50.762;4.470;2023-06-26T09:05:12;2.53;;;0.47;;
38972;SDS011;25333;50.762;4.470;2023-06-26T09:07:37;2.72;;;0.40;;
38972;SDS011;25333;50.762;4.470;2023-06-26T09:10:03;5.72;;;0.50;;
38972;SDS011;25333;50.762;4.470;2023-06-26T09:12:29;4.47;;;0.68;;
38972;SDS011;25333;50.762;4.470;2023-06-26T09:14:56;2.05;;;0.70;;
38972;SDS011;25333;50.762;4.470;2023-06-26T09:17:25;4.40;;;0.90;;
38972;SDS011;25333;50.762;4.470;2023-06-26T09:19:55;2.35;;;0.60;;
38972;SDS011;25333;50.762;4.470;2023-06-26T09:22:21;3.75;;;0.65;;
38972;SDS011;25333;50.762;4.470;2023-06-26T09:24:48;2.45;;;0.63;;
38972;SDS011;25333;50.762;4.470;2023-06-26T09:27:13;5.18;;;0.77;;
38972;SDS011;25333;50.762;4.470;2023-06-26T09:29:40;2.75;;;0.40;;
38972;SDS011;25333;50.762;4.470;2023-06-26T09:32:07;4.45;;;0.85;;
38972;SDS011;25333;50.762;4.470;2023-06-26T09:34:34;2.95;;;0.50;;
38972;SDS011;25333;50.762;4.470;2023-06-26T09:37:00;3.95;;;0.40;;
38972;SDS011;25333;50.762;4.470;2023-06-26T09:39:32;3.15;;;0.40;;
38972;SDS011;25333;50.762;4.470;2023-06-26T09:41:58;2.10;;;0.47;;
38972;SDS011;25333;50.762;4.470;2023-06-26T09:44:24;2.03;;;0.37;;
38972;SDS011;25333;50.762;4.470;2023-06-26T09:46:49;1.33;;;0.40;;
38972;SDS011;25333;50.762;4.470;2023-06-26T09:49:15;3.70;;;0.83;;
38972;SDS011;25333;50.762;4.470;2023-06-26T09:51:41;3.53;;;0.87;;
38972;SDS011;25333;50.762;4.470;2023-06-26T09:54:08;2.85;;;0.82;;
38972;SDS011;25333;50.762;4.470;2023-06-26T09:56:34;1.73;;;0.60;;
38972;SDS011;25333;50.762;4.470;2023-06-26T09:59:00;4.40;;;0.70;;
38972;SDS011;25333;50.762;4.470;2023-06-26T10:01:29;4.22;;;0.70;;
38972;SDS011;25333;50.762;4.470;2023-06-26T10:03:55;2.80;;;0.43;;
38972;SDS011;25333;50.762;4.470;2023-06-26T10:06:27;3.43;;;0.63;;
38972;SDS011;25333;50.762;4.470;2023-06-26T10:08:58;4.15;;;0.80;;
38972;SDS011;25333;50.762;4.470;2023-06-26T10:11:27;1.75;;;0.43;;
38972;SDS011;25333;50.762;4.470;2023-06-26T10:14:16;2.40;;;0.55;;
38972;SDS011;25333;50.762;4.470;2023-06-26T10:16:42;4.13;;;0.75;;
38972;SDS011;25333;50.762;4.470;2023-06-26T10:19:10;2.90;;;0.70;;
38972;SDS011;25333;50.762;4.470;2023-06-26T10:21:37;1.67;;;0.50;;
38972;SDS011;25333;50.762;4.470;2023-06-26T10:24:06;3.85;;;0.40;;
38972;SDS011;25333;50.762;4.470;2023-06-26T10:26:38;2.40;;;0.70;;
38972;SDS011;25333;50.762;4.470;2023-06-26T10:29:09;3.75;;;0.65;;
38972;SDS011;25333;50.762;4.470;2023-06-26T10:31:36;1.38;;;0.55;;
38972;SDS011;25333;50.762;4.470;2023-06-26T10:34:03;4.47;;;0.70;;
38972;SDS011;25333;50.762;4.470;2023-06-26T10:36:31;3.70;;;0.60;;
38972;SDS011;25333;50.762;4.470;2023-06-26T10:38:58;1.40;;;0.60;;
38972;SDS011;25333;50.762;4.470;2023-06-26T10:41:26;2.13;;;0.50;;
38972;SDS011;25333;50.762;4.470;2023-06-26T10:46:24;1.63;;;0.40;;
38972;SDS011;25333;50.762;4.470;2023-06-26T10:48:59;4.17;;;0.63;;
38972;SDS011;25333;50.762;4.470;2023-06-26T10:51:25;4.18;;;0.60;;
38972;SDS011;25333;50.762;4.470;2023-06-26T10:53:55;3.70;;;0.60;;
38972;SDS011;25333;50.762;4.470;2023-06-26T10:56:40;2.85;;;0.80;;
38972;SDS011;25333;50.762;4.470;2023-06-26T10:59:14;2.88;;;0.50;;
38972;SDS011;25333;50.762;4.470;2023-06-26T11:01:45;1.25;;;0.60;;
38972;SDS011;25333;50.762;4.470;2023-06-26T11:12:38;1.42;;;0.30;;
38972;SDS011;25333;50.762;4.470;2023-06-26T11:15:10;1.05;;;0.38;;
38972;SDS011;25333;50.762;4.470;2023-06-26T11:17:44;3.75;;;0.65;;
38972;SDS011;25333;50.762;4.470;2023-06-26T11:20:10;2.88;;;1.08;;
38972;SDS011;25333;50.762;4.470;2023-06-26T11:22:38;1.92;;;0.75;;
38972;SDS011;25333;50.762;4.470;2023-06-26T11:25:06;4.18;;;0.60;;
38972;SDS011;25333;50.762;4.470;2023-06-26T11:27:39;1.75;;;0.50;;
38972;SDS011;25333;50.762;4.470;2023-06-26T11:30:06;1.02;;;0.30;;
38972;SDS011;25333;50.762;4.470;2023-06-26T11:32:34;6.32;;;1.00;;
38972;SDS011;25333;50.762;4.470;2023-06-26T11:35:01;2.17;;;0.40;;
38972;SDS011;25333;50.762;4.470;2023-06-26T11:37:27;1.42;;;0.50;;
38972;SDS011;25333;50.762;4.470;2023-06-26T11:39:53;2.30;;;0.35;;
38972;SDS011;25333;50.762;4.470;2023-06-26T11:42:19;1.33;;;0.30;;
38972;SDS011;25333;50.762;4.470;2023-06-26T11:44:45;4.07;;;0.52;;
38972;SDS011;25333;50.762;4.470;2023-06-26T11:47:12;1.83;;;0.60;;
38972;SDS011;25333;50.762;4.470;2023-06-26T11:49:46;2.67;;;0.50;;
38972;SDS011;25333;50.762;4.470;2023-06-26T11:52:13;2.67;;;0.60;;
38972;SDS011;25333;50.762;4.470;2023-06-26T11:54:40;4.45;;;0.45;;
38972;SDS011;25333;50.762;4.470;2023-06-26T11:57:06;2.07;;;0.83;;
38972;SDS011;25333;50.762;4.470;2023-06-26T11:59:35;3.13;;;0.83;;
38972;SDS011;25333;50.762;4.470;2023-06-26T12:02:13;1.65;;;0.75;;
38972;SDS011;25333;50.762;4.470;2023-06-26T12:04:40;2.40;;;0.55;;
38972;SDS011;25333;50.762;4.470;2023-06-26T12:07:07;2.13;;;0.60;;
38972;SDS011;25333;50.762;4.470;2023-06-26T12:09:41;2.53;;;0.40;;
38972;SDS011;25333;50.762;4.470;2023-06-26T12:12:12;1.50;;;0.50;;
38972;SDS011;25333;50.762;4.470;2023-06-26T12:14:42;2.60;;;0.40;;
38972;SDS011;25333;50.762;4.470;2023-06-26T12:17:11;2.73;;;0.50;;
38972;SDS011;25333;50.762;4.470;2023-06-26T12:19:38;1.67;;;0.28;;
38972;SDS011;25333;50.762;4.470;2023-06-26T12:22:08;4.80;;;0.47;;
38972;SDS011;25333;50.762;4.470;2023-06-26T12:24:38;1.88;;;0.35;;
38972;SDS011;25333;50.762;4.470;2023-06-26T12:27:11;1.35;;;0.47;;
38972;SDS011;25333;50.762;4.470;2023-06-26T12:29:38;1.20;;;0.30;;
38972;SDS011;25333;50.762;4.470;2023-06-26T12:32:08;2.30;;;0.40;;
38972;SDS011;25333;50.762;4.470;2023-06-26T12:34:35;2.85;;;0.70;;
38972;SDS011;25333;50.762;4.470;2023-06-26T12:37:08;1.58;;;0.40;;
38972;SDS011;25333;50.762;4.470;2023-06-26T12:42:27;1.40;;;0.40;;
38972;SDS011;25333;50.762;4.470;2023-06-26T12:44:53;3.38;;;0.73;;
38972;SDS011;25333;50.762;4.470;2023-06-26T12:47:26;2.25;;;0.40;;
38972;SDS011;25333;50.762;4.470;2023-06-26T12:49:53;2.03;;;0.40;;
38972;SDS011;25333;50.762;4.470;2023-06-26T12:52:19;2.42;;;0.47;;
38972;SDS011;25333;50.762;4.470;2023-06-26T12:54:45;1.00;;;0.30;;
38972;SDS011;25333;50.762;4.470;2023-06-26T12:57:16;1.88;;;0.47;;
38972;SDS011;25333;50.762;4.470;2023-06-26T12:59:42;1.97;;;0.50;;
38972;SDS011;25333;50.762;4.470;2023-06-26T13:02:08;1.40;;;0.40;;
38972;SDS011;25333;50.762;4.470;2023-06-26T13:04:34;1.85;;;0.40;;
38972;SDS011;25333;50.762;4.470;2023-06-26T13:07:00;2.17;;;0.70;;
38972;SDS011;25333;50.762;4.470;2023-06-26T13:09:26;1.83;;;0.68;;
38972;SDS011;25333;50.762;4.470;2023-06-26T13:11:52;2.45;;;0.60;;
38972;SDS011;25333;50.762;4.470;2023-06-26T13:14:19;3.50;;;1.20;;
38972;SDS011;25333;50.762;4.470;2023-06-26T13:16:44;2.17;;;0.50;;
38972;SDS011;25333;50.762;4.470;2023-06-26T13:19:10;4.33;;;0.67;;
38972;SDS011;25333;50.762;4.470;2023-06-26T13:21:36;2.20;;;0.30;;
38972;SDS011;25333;50.762;4.470;2023-06-26T13:24:02;2.60;;;0.63;;
38972;SDS011;25333;50.762;4.470;2023-06-26T13:26:31;2.22;;;0.70;;
38972;SDS011;25333;50.762;4.470;2023-06-26T13:28:56;3.33;;;0.60;;
38972;SDS011;25333;50.762;4.470;2023-06-26T13:31:23;2.05;;;0.43;;
38972;SDS011;25333;50.762;4.470;2023-06-26T13:33:49;1.20;;;0.30;;
38972;SDS011;25333;50.762;4.470;2023-06-26T13:36:16;1.60;;;0.60;;
38972;SDS011;25333;50.762;4.470;2023-06-26T13:38:41;4.45;;;0.50;;
38972;SDS011;25333;50.762;4.470;2023-06-26T13:41:07;4.37;;;0.60;;
38972;SDS011;25333;50.762;4.470;2023-06-26T13:43:33;3.03;;;0.90;;
38972;SDS011;25333;50.762;4.470;2023-06-26T13:45:58;2.30;;;0.50;;
38972;SDS011;25333;50.762;4.470;2023-06-26T13:48:25;3.50;;;0.70;;
38972;SDS011;25333;50.762;4.470;2023-06-26T13:50:51;2.58;;;0.50;;
38972;SDS011;25333;50.762;4.470;2023-06-26T13:53:17;4.57;;;0.40;;
38972;SDS011;25333;50.762;4.470;2023-06-26T13:55:43;5.87;;;0.57;;
38972;SDS011;25333;50.762;4.470;2023-06-26T13:58:09;5.82;;;0.55;;
38972;SDS011;25333;50.762;4.470;2023-06-26T14:00:36;1.90;;;0.80;;
38972;SDS011;25333;50.762;4.470;2023-06-26T14:03:05;2.72;;;0.63;;
38972;SDS011;25333;50.762;4.470;2023-06-26T14:05:34;2.00;;;0.60;;
38972;SDS011;25333;50.762;4.470;2023-06-26T14:08:02;3.67;;;0.30;;
38972;SDS011;25333;50.762;4.470;2023-06-26T14:10:29;1.88;;;0.35;;
38972;SDS011;25333;50.762;4.470;2023-06-26T14:12:55;2.03;;;0.40;;
38972;SDS011;25333;50.762;4.470;2023-06-26T14:15:20;2.10;;;0.47;;
38972;SDS011;25333;50.762;4.470;2023-06-26T14:17:46;1.90;;;0.47;;
38972;SDS011;25333;50.762;4.470;2023-06-26T14:20:16;5.32;;;0.70;;
38972;SDS011;25333;50.762;4.470;2023-06-26T14:22:42;4.53;;;0.65;;
38972;SDS011;25333;50.762;4.470;2023-06-26T14:25:12;2.22;;;0.65;;
38972;SDS011;25333;50.762;4.470;2023-06-26T14:27:38;1.75;;;0.60;;
38972;SDS011;25333;50.762;4.470;2023-06-26T14:30:04;2.15;;;0.30;;
38972;SDS011;25333;50.762;4.470;2023-06-26T14:32:30;2.22;;;0.60;;
38972;SDS011;25333;50.762;4.470;2023-06-26T14:34:56;2.05;;;0.52;;
38972;SDS011;25333;50.762;4.470;2023-06-26T14:37:23;3.00;;;0.53;;
38972;SDS011;25333;50.762;4.470;2023-06-26T14:39:49;2.58;;;0.47;;
38972;SDS011;25333;50.762;4.470;2023-06-26T14:42:15;1.90;;;0.32;;
38972;SDS011;25333;50.762;4.470;2023-06-26T14:44:41;1.53;;;0.47;;
38972;SDS011;25333;50.762;4.470;2023-06-26T14:47:06;1.90;;;0.30;;
38972;SDS011;25333;50.762;4.470;2023-06-26T14:49:32;3.10;;;0.60;;
38972;SDS011;25333;50.762;4.470;2023-06-26T14:51:58;1.20;;;0.40;;
38972;SDS011;25333;50.762;4.470;2023-06-26T14:54:24;2.10;;;0.70;;
38972;SDS011;25333;50.762;4.470;2023-06-26T14:56:50;3.27;;;0.60;;
38972;SDS011;25333;50.762;4.470;2023-06-26T14:59:15;6.87;;;0.50;;
38972;SDS011;25333;50.762;4.470;2023-06-26T15:01:41;4.03;;;0.50;;
38972;SDS011;25333;50.762;4.470;2023-06-26T15:04:07;1.30;;;0.30;;
38972;SDS011;25333;50.762;4.470;2023-06-26T15:06:33;1.80;;;0.57;;
38972;SDS011;25333;50.762;4.470;2023-06-26T15:08:59;2.60;;;0.30;;
38972;SDS011;25333;50.762;4.470;2023-06-26T15:11:25;3.15;;;0.70;;